Time;durP1;ratioP1;P1;durP2;ratioP2;P2;SDS_P1;SDS_P2;PMS_P1;PMS_P2;Temp;Humidity;BMP_temperature;BMP_pressure;BME280_temperature;BME280_humidity;BME280_pressure;Samples;Min_cycle;Max_cycle;Signal;HPM_P1;HPM_P2
2021/12/04 00:05:22;;;;;;;30.23;14.30;;;;;;;2.70;100.00;99908.19;5136873;28;20069;-76
2021/12/04 00:11:12;;;;;;;31.80;14.88;;;;;;;2.70;100.00;99885.25;5136925;27;20052;-76
2021/12/04 00:17:02;;;;;;;34.80;16.50;;;;;;;2.74;100.00;99875.97;5136583;28;20401;-75
2021/12/04 00:22:49;;;;;;;38.13;19.63;;;;;;;2.72;100.00;99869.22;5136893;28;20050;-76
2021/12/04 00:28:36;;;;;;;33.13;16.95;;;;;;;2.70;100.00;99872.06;5136286;27;20147;-76
2021/12/04 00:34:25;;;;;;;33.40;17.85;;;;;;;2.76;100.00;99871.31;5136507;28;20099;-75
2021/12/04 00:55:46;;;;;;;26.95;13.68;;;;;;;2.72;100.00;99838.38;5136004;28;20087;-76
2021/12/04 01:01:33;;;;;;;28.02;14.80;;;;;;;2.71;100.00;99847.31;5135926;28;20035;-76
2021/12/04 01:03:59;;;;;;;30.42;14.27;;;;;;;2.70;100.00;99840.41;5135049;27;20130;-76
2021/12/04 01:09:46;;;;;;;37.53;19.77;;;;;;;2.76;100.00;99850.19;5135161;28;20046;-76
2021/12/04 01:15:34;;;;;;;25.35;12.63;;;;;;;2.81;100.00;99857.53;5135831;28;20088;-76
2021/12/04 01:21:20;;;;;;;22.95;11.50;;;;;;;2.82;100.00;99847.81;5135941;28;20083;-76
2021/12/04 01:27:11;;;;;;;23.88;12.18;;;;;;;2.86;100.00;99859.63;5135455;28;20034;-77
2021/12/04 01:32:58;;;;;;;31.88;16.75;;;;;;;2.82;100.00;99847.81;5135327;28;20062;-75
2021/12/04 01:35:23;;;;;;;23.17;12.85;;;;;;;2.85;100.00;99845.59;5116212;28;20487;-76
2021/12/04 01:41:11;;;;;;;25.98;14.02;;;;;;;2.88;100.00;99847.84;5134636;27;20088;-77
2021/12/04 01:46:58;;;;;;;25.27;13.02;;;;;;;2.82;100.00;99831.97;5135048;28;20525;-75
2021/12/04 01:52:45;;;;;;;23.20;12.18;;;;;;;2.87;100.00;99837.50;5135339;28;20091;-74
2021/12/04 01:55:10;;;;;;;27.90;15.93;;;;;;;2.86;100.00;99834.03;5115767;28;20032;-75
2021/12/04 02:00:57;;;;;;;24.20;12.80;;;;;;;2.91;100.00;99828.22;5134905;28;20394;-75
2021/12/04 02:06:44;;;;;;;25.85;15.65;;;;;;;2.98;100.00;99842.28;5135033;28;20085;-75
2021/12/04 02:09:12;;;;;;;23.08;13.20;;;;;;;2.93;100.00;99828.84;5116209;28;20059;-74
2021/12/04 02:11:37;;;;;;;20.30;11.27;;;;;;;2.93;100.00;99813.00;5116184;28;20027;-75
2021/12/04 02:17:24;;;;;;;22.65;12.05;;;;;;;2.92;100.00;99792.88;5134661;28;20057;-74
2021/12/04 02:23:11;;;;;;;18.95;10.88;;;;;;;2.99;100.00;99785.81;5134741;28;20080;-74
2021/12/04 02:28:59;;;;;;;22.52;12.00;;;;;;;2.99;100.00;99775.28;5134346;28;20453;-74
2021/12/04 02:31:25;;;;;;;26.95;12.77;;;;;;;3.01;100.00;99775.88;5133548;28;20118;-74
2021/12/04 02:37:12;;;;;;;25.70;14.25;;;;;;;2.96;100.00;99760.63;5134497;28;20176;-77
2021/12/04 02:42:59;;;;;;;27.60;13.77;;;;;;;2.98;100.00;99757.78;5134051;28;20114;-76
2021/12/04 02:45:25;;;;;;;30.00;14.00;;;;;;;2.99;100.00;99752.31;5134122;28;20066;-76
2021/12/04 02:51:15;;;;;;;23.45;12.10;;;;;;;3.02;100.00;99748.47;5134286;28;20053;-76
2021/12/04 02:57:05;;;;;;;24.13;12.07;;;;;;;3.05;100.00;99754.19;5134317;28;20077;-76
2021/12/04 03:06:15;;;;;;;22.08;11.98;;;;;;;3.01;100.00;99754.78;5134218;28;20536;-76
2021/12/04 03:12:06;;;;;;;26.40;14.10;;;;;;;3.02;100.00;99754.56;5133628;28;20525;-76
2021/12/04 03:17:53;;;;;;;24.20;14.07;;;;;;;3.00;100.00;99735.47;5134052;28;20088;-76
2021/12/04 03:23:52;;;;;;;24.48;12.73;;;;;;;3.01;100.00;99725.72;5133924;28;20083;-77
2021/12/04 03:26:17;;;;;;;23.77;12.45;;;;;;;3.00;100.00;99732.00;5114693;28;20039;-75
2021/12/04 03:40:55;;;;;;;22.85;13.10;;;;;;;2.96;100.00;99717.56;5133290;28;20080;-76
2021/12/04 03:43:20;;;;;;;22.88;12.38;;;;;;;3.03;100.00;99723.69;5114342;28;20015;-76
2021/12/04 03:45:48;;;;;;;24.23;13.00;;;;;;;3.00;100.00;99708.25;5114787;28;20035;-76
2021/12/04 03:48:59;;;;;;;21.63;11.32;;;;;;;2.99;100.00;99711.91;5114756;28;20390;-76
2021/12/04 03:51:04;;;;;;;24.88;12.20;;;;;;;3.02;100.00;99707.03;5121321;28;20440;-75
2021/12/04 03:57:02;;;;;;;18.63;10.60;;;;;;;3.04;100.00;99693.66;5133550;28;20050;-75
2021/12/04 04:02:49;;;;;;;17.40;10.77;;;;;;;2.99;100.00;99696.88;5133103;27;20076;-75
2021/12/04 04:08:36;;;;;;;18.27;10.10;;;;;;;3.01;100.00;99705.41;5133116;28;20123;-76
2021/12/04 04:14:24;;;;;;;18.17;10.20;;;;;;;3.03;100.00;99694.66;5133400;28;20129;-75
2021/12/04 04:20:14;;;;;;;16.55;9.20;;;;;;;3.04;100.00;99691.00;5133138;28;20100;-76
2021/12/04 04:29:26;;;;;;;17.52;10.63;;;;;;;2.96;100.00;99664.75;5133001;28;20042;-76
2021/12/04 04:35:22;;;;;;;14.50;8.25;;;;;;;2.99;100.00;99670.47;5133100;28;20118;-76
2021/12/04 05:13:09;;;;;;;13.77;7.55;;;;;;;3.04;100.00;99659.31;5135859;28;20077;-76
2021/12/04 05:15:38;;;;;;;10.45;6.65;;;;;;;3.06;100.00;99657.31;5134808;28;20080;-77
2021/12/04 05:21:06;;;;;;;11.13;6.63;;;;;;;3.08;100.00;99634.16;5134814;28;20042;-78
2021/12/04 05:26:53;;;;;;;10.30;6.47;;;;;;;3.02;100.00;99627.84;5134850;28;20072;-77
2021/12/04 05:29:18;;;;;;;10.52;6.88;;;;;;;3.05;100.00;99642.47;5116831;28;20117;-77
2021/12/04 05:35:05;;;;;;;11.35;6.95;;;;;;;3.10;100.00;99645.34;5135540;28;20082;-76
2021/12/04 05:37:31;;;;;;;9.60;5.57;;;;;;;3.12;100.00;99640.66;5135134;28;20058;-77
2021/12/04 05:39:57;;;;;;;8.95;6.20;;;;;;;3.04;100.00;99633.72;5134254;28;20061;-76
2021/12/04 05:42:22;;;;;;;11.48;7.22;;;;;;;3.09;100.00;99633.16;5116868;28;20096;-77
2021/12/04 05:44:48;;;;;;;10.95;6.22;;;;;;;3.08;100.00;99639.44;5134229;28;20047;-76
2021/12/04 05:47:23;;;;;;;11.10;6.53;;;;;;;3.01;100.00;99625.38;5135053;28;20483;-76
2021/12/04 05:53:25;;;;;;;9.77;5.78;;;;;;;3.11;100.00;99639.03;5135230;27;20050;-75
2021/12/04 05:59:12;;;;;;;9.30;5.60;;;;;;;3.19;100.00;99636.25;5134945;28;20041;-75
2021/12/04 06:04:59;;;;;;;9.13;5.68;;;;;;;3.23;100.00;99626.94;5134967;28;20042;-75
2021/12/04 06:07:24;;;;;;;8.95;5.88;;;;;;;3.22;100.00;99625.31;5116261;28;20023;-75
2021/12/04 06:13:11;;;;;;;7.55;5.00;;;;;;;3.14;100.00;99617.53;5134895;28;20123;-74
2021/12/04 06:15:37;;;;;;;8.07;5.35;;;;;;;3.21;100.00;99625.50;5115526;28;20130;-76
2021/12/04 06:18:02;;;;;;;10.63;5.75;;;;;;;3.18;100.00;99613.50;5116124;28;20512;-74
2021/12/04 06:26:35;;;;;;;9.07;6.40;;;;;;;3.19;100.00;99622.25;5134761;28;20054;-74
2021/12/04 06:32:22;;;;;;;8.40;5.47;;;;;;;3.20;100.00;99610.66;5134668;28;20045;-75
2021/12/04 06:38:11;;;;;;;8.77;5.57;;;;;;;3.19;100.00;99617.78;5134085;28;20038;-75
2021/12/04 06:40:38;;;;;;;10.73;6.10;;;;;;;3.22;100.00;99624.50;5115234;28;20087;-75
2021/12/04 06:46:26;;;;;;;9.25;5.88;;;;;;;3.19;100.00;99615.13;5134356;28;20456;-78
2021/12/04 06:52:20;;;;;;;11.05;6.60;;;;;;;3.27;100.00;99632.63;5134546;28;20065;-74
2021/12/04 06:58:07;;;;;;;11.98;6.15;;;;;;;3.26;100.00;99629.19;5134275;28;20038;-76
2021/12/04 07:00:34;;;;;;;10.45;6.00;;;;;;;3.24;100.00;99625.91;5134021;28;20027;-75
2021/12/04 07:06:21;;;;;;;11.05;6.22;;;;;;;3.21;100.00;99626.31;5134154;28;20042;-76
2021/12/04 07:12:09;;;;;;;9.55;6.20;;;;;;;3.25;100.00;99632.00;5134187;28;20042;-77
2021/12/04 07:17:56;;;;;;;12.25;6.80;;;;;;;3.26;100.00;99618.59;5133969;28;20050;-78
2021/12/04 07:20:23;;;;;;;11.70;6.53;;;;;;;3.26;100.00;99625.72;5133499;28;20471;-77
2021/12/04 07:26:10;;;;;;;12.30;6.95;;;;;;;3.28;100.00;99613.94;5133805;28;20178;-77
2021/12/04 07:28:35;;;;;;;12.35;7.10;;;;;;;3.28;100.00;99616.59;5132664;28;20043;-76
2021/12/04 07:34:23;;;;;;;11.35;6.63;;;;;;;3.32;100.00;99623.09;5133811;28;20054;-76
2021/12/04 07:40:11;;;;;;;14.32;7.78;;;;;;;3.29;100.00;99618.22;5133680;28;20046;-77
2021/12/04 07:45:58;;;;;;;14.65;7.82;;;;;;;3.30;100.00;99609.28;5133050;27;20145;-79
2021/12/04 07:51:47;;;;;;;13.93;6.93;;;;;;;3.35;100.00;99603.41;5133221;28;20084;-75
2021/12/04 07:57:34;;;;;;;12.38;6.93;;;;;;;3.40;100.00;99612.34;5133766;28;20493;-75
2021/12/04 08:03:22;;;;;;;12.68;7.43;;;;;;;3.39;100.00;99594.88;5133211;27;20050;-78
2021/12/04 08:05:49;;;;;;;12.75;6.75;;;;;;;3.42;100.00;99606.88;5132414;28;20043;-77
2021/12/04 08:11:37;;;;;;;11.20;5.65;;;;;;;3.49;100.00;99604.28;5133348;28;20046;-77
2021/12/04 08:17:25;;;;;;;11.13;6.03;;;;;;;3.52;100.00;99595.94;5136966;28;20506;-77
2021/12/04 08:23:12;;;;;;;13.95;6.63;;;;;;;3.54;100.00;99581.50;5136485;28;20130;-77
2021/12/04 08:28:59;;;;;;;15.40;6.63;;;;;;;3.61;100.00;99568.31;5135836;28;20050;-76
2021/12/04 08:34:46;;;;;;;13.98;7.20;;;;;;;3.67;100.00;99556.94;5136460;27;20492;-76
2021/12/04 08:40:34;;;;;;;14.38;8.90;;;;;;;3.64;100.00;99552.88;5136365;28;20133;-73
2021/12/04 08:46:23;;;;;;;13.75;8.35;;;;;;;3.70;100.00;99552.06;5136335;28;20046;-72
2021/12/04 08:48:50;;;;;;;13.73;7.40;;;;;;;3.72;100.00;99555.31;5116863;28;20035;-73
2021/12/04 08:54:39;;;;;;;12.75;7.15;;;;;;;3.76;100.00;99534.59;5136088;28;20077;-72
2021/12/04 09:00:35;;;;;;;13.90;6.85;;;;;;;3.88;100.00;99529.50;5135286;28;20070;-73
2021/12/04 09:06:22;;;;;;;12.82;6.57;;;;;;;3.99;100.00;99548.22;5135895;28;20406;-73
2021/12/04 09:12:11;;;;;;;10.77;6.63;;;;;;;3.95;100.00;99548.81;5135941;28;20187;-73
2021/12/04 09:17:59;;;;;;;13.30;7.20;;;;;;;3.99;100.00;99540.28;5135159;27;20064;-73
2021/12/04 09:23:53;;;;;;;13.20;7.30;;;;;;;4.04;100.00;99534.38;5135259;28;20083;-73
2021/12/04 10:00:08;;;;;;;14.70;10.00;;;;;;;4.12;100.00;99491.88;5135057;28;20384;-73
2021/12/04 10:18:56;;;;;;;17.38;8.23;;;;;;;4.04;100.00;99495.53;5134476;27;20100;-73
2021/12/04 10:24:57;;;;;;;13.52;9.02;;;;;;;4.10;100.00;99487.81;5134206;28;20050;-73
2021/12/04 10:34:06;;;;;;;18.17;12.95;;;;;;;4.13;100.00;99466.22;5134494;28;20042;-73
2021/12/04 10:39:57;;;;;;;19.08;11.65;;;;;;;4.07;100.00;99448.56;5134595;28;20209;-74
2021/12/04 10:45:49;;;;;;;43.05;20.13;;;;;;;4.13;100.00;99451.19;5134469;28;20103;-75
2021/12/04 10:51:48;;;;;;;20.73;10.77;;;;;;;4.14;100.00;99441.41;5134092;28;20076;-74
2021/12/04 10:58:04;;;;;;;19.33;9.80;;;;;;;4.19;100.00;99428.38;5134030;28;20046;-74
2021/12/04 11:22:02;;;;;;;18.15;11.77;;;;;;;4.53;100.00;99372.47;5133648;28;20088;-75
2021/12/04 11:46:13;;;;;;;13.75;9.25;;;;;;;4.78;100.00;99374.38;5133563;28;20054;-74
2021/12/04 11:55:24;;;;;;;17.02;10.98;;;;;;;4.72;100.00;99349.56;5137413;28;20142;-74
2021/12/04 12:01:25;;;;;;;15.65;9.88;;;;;;;4.83;100.00;99345.41;5136769;28;20432;-75
2021/12/04 12:07:17;;;;;;;16.42;10.13;;;;;;;4.86;100.00;99337.84;5136624;28;20367;-73
2021/12/04 12:13:06;;;;;;;16.25;9.43;;;;;;;4.79;100.00;99326.50;5136128;28;20436;-74
2021/12/04 12:18:57;;;;;;;15.88;10.98;;;;;;;4.71;100.00;99324.13;5136572;28;20056;-73
2021/12/04 12:36:42;;;;;;;20.20;9.75;;;;;;;4.42;100.00;99322.88;5136122;28;20050;-73
2021/12/04 12:42:36;;;;;;;21.02;12.55;;;;;;;4.34;100.00;99329.22;5136203;28;20442;-75
2021/12/04 12:48:23;;;;;;;22.55;11.82;;;;;;;4.28;100.00;99327.38;5135840;28;20511;-75
2021/12/04 12:54:21;;;;;;;21.35;11.50;;;;;;;4.29;100.00;99334.31;5136049;28;20126;-72
2021/12/04 13:12:15;;;;;;;36.22;18.08;;;;;;;4.23;100.00;99314.00;5135498;28;20038;-76
2021/12/04 13:18:20;;;;;;;32.95;15.77;;;;;;;4.24;100.00;99318.25;5135422;28;20084;-74
2021/12/04 13:23:51;;;;;;;33.45;15.15;;;;;;;4.31;100.00;99315.56;5135366;28;19922;-74
2021/12/04 13:29:48;;;;;;;37.53;14.98;;;;;;;4.42;100.00;99317.56;5134687;27;20095;-75
2021/12/04 13:35:35;;;;;;;27.70;14.13;;;;;;;4.47;100.00;99314.28;5134969;28;20433;-74
2021/12/04 13:41:22;;;;;;;30.73;14.60;;;;;;;4.44;100.00;99304.13;5135228;28;20437;-74
2021/12/04 13:47:12;;;;;;;28.02;13.82;;;;;;;4.40;100.00;99303.75;5135194;28;20436;-74
2021/12/04 13:53:06;;;;;;;25.42;13.15;;;;;;;4.42;100.00;99303.53;5135120;28;20386;-74
2021/12/04 13:58:58;;;;;;;29.13;14.50;;;;;;;4.49;100.00;99317.53;5134746;28;20042;-74
2021/12/04 14:04:56;;;;;;;28.02;13.65;;;;;;;4.48;100.00;99310.63;5134519;28;20073;-74
2021/12/04 14:10:45;;;;;;;22.58;11.65;;;;;;;4.49;100.00;99304.28;5134636;27;20383;-75
2021/12/04 14:16:32;;;;;;;29.75;13.48;;;;;;;4.51;100.00;99307.53;5134256;28;20383;-75
2021/12/04 14:22:20;;;;;;;29.55;13.13;;;;;;;4.59;100.00;99307.28;5134490;28;20409;-75
2021/12/04 14:28:07;;;;;;;26.02;12.75;;;;;;;4.58;100.00;99314.41;5133964;28;20055;-76
2021/12/04 14:33:54;;;;;;;26.70;12.50;;;;;;;4.58;100.00;99327.66;5134330;28;20407;-78
2021/12/04 14:39:44;;;;;;;22.77;10.85;;;;;;;4.60;100.00;99327.44;5134127;27;20038;-74
2021/12/04 14:45:34;;;;;;;14.13;7.25;;;;;;;4.61;100.00;99352.88;5134054;28;20049;-75
2021/12/04 14:51:22;;;;;;;17.90;9.48;;;;;;;4.38;100.00;99345.47;5134171;28;20046;-76
2021/12/04 14:57:18;;;;;;;183.35;56.85;;;;;;;4.42;100.00;99362.56;5133200;28;20084;-76
2021/12/04 15:03:09;;;;;;;14.38;6.82;;;;;;;4.40;100.00;99379.66;5133876;28;20068;-76
2021/12/04 15:08:59;;;;;;;12.57;6.75;;;;;;;4.39;100.00;99394.72;5133482;28;20084;-76
2021/12/04 15:14:46;;;;;;;12.57;4.53;;;;;;;4.35;100.00;99388.25;5132945;28;20091;-76
2021/12/04 15:20:35;;;;;;;14.45;5.50;;;;;;;4.24;100.00;99391.50;5133713;28;20395;-75
2021/12/04 15:26:25;;;;;;;11.60;4.00;;;;;;;4.29;100.00;99408.38;5133062;28;20095;-78
2021/12/04 15:32:16;;;;;;;7.47;4.47;;;;;;;4.29;100.00;99424.25;5133163;28;20096;-75
2021/12/04 15:38:09;;;;;;;7.65;3.80;;;;;;;4.27;100.00;99436.06;5133118;27;20038;-76
2021/12/04 15:50:49;;;;;;;8.95;3.55;;;;;;;4.23;100.00;99456.03;5131711;28;20129;-77
2021/12/04 15:52:50;;;;;;;6.53;3.50;;;;;;;4.26;100.00;99455.63;5124890;28;20036;-77
2021/12/04 15:58:37;;;;;;;5.75;3.78;;;;;;;4.27;100.00;99465.16;5133116;28;20742;-75
2021/12/04 16:04:30;;;;;;;8.40;4.10;;;;;;;4.27;100.00;99470.47;5132684;28;20074;-75
2021/12/04 16:10:21;;;;;;;7.80;3.80;;;;;;;4.30;100.00;99483.28;5132716;28;20038;-74
2021/12/04 16:12:53;;;;;;;10.82;4.82;;;;;;;4.30;100.00;99491.22;5132223;28;20051;-75
2021/12/04 16:18:42;;;;;;;9.63;4.25;;;;;;;4.24;100.00;99495.50;5132559;28;20077;-76
2021/12/04 16:24:32;;;;;;;13.13;4.05;;;;;;;4.18;100.00;99501.63;5132559;28;20038;-75
2021/12/04 16:27:10;;;;;;;11.10;4.60;;;;;;;4.07;100.00;99502.25;5131285;28;20072;-75
2021/12/04 16:33:06;;;;;;;11.20;4.55;;;;;;;3.89;100.00;99516.09;5131462;28;20035;-75
2021/12/04 16:38:53;;;;;;;8.30;3.30;;;;;;;3.84;100.00;99526.47;5134904;28;20041;-75
2021/12/04 16:44:40;;;;;;;10.77;3.63;;;;;;;3.83;100.00;99530.13;5135716;28;20050;-73
2021/12/04 16:47:06;;;;;;;10.70;3.15;;;;;;;3.80;100.00;99540.28;5134512;28;20039;-73
2021/12/04 16:59:07;;;;;;;12.35;3.67;;;;;;;3.57;100.00;99540.66;5135348;28;20128;-74
2021/12/04 17:04:54;;;;;;;10.05;3.25;;;;;;;3.42;100.00;99554.03;5135304;28;20087;-75
2021/12/04 17:10:41;;;;;;;16.73;3.80;;;;;;;3.35;100.00;99561.13;5134614;27;20092;-74
2021/12/04 17:16:29;;;;;;;18.20;3.67;;;;;;;3.32;100.00;99574.72;5135288;28;20123;-74
2021/12/04 17:22:16;;;;;;;15.55;3.67;;;;;;;3.14;100.00;99566.53;5135293;28;20116;-75
2021/12/04 17:24:41;;;;;;;9.43;3.22;;;;;;;3.09;100.00;99570.59;5116046;28;20471;-73
2021/12/04 17:30:29;;;;;;;14.75;3.55;;;;;;;2.95;100.00;99574.19;5134978;27;20515;-73
2021/12/04 17:32:55;;;;;;;12.05;4.28;;;;;;;2.90;100.00;99578.44;5116232;28;20027;-73
2021/12/04 17:38:44;;;;;;;16.27;4.05;;;;;;;2.85;100.00;99583.44;5134492;28;20034;-74
2021/12/04 17:44:31;;;;;;;16.10;4.97;;;;;;;2.73;100.00;99586.66;5134847;27;20167;-74
2021/12/04 17:50:25;;;;;;;13.43;4.88;;;;;;;2.64;100.00;99593.09;5134638;28;20054;-74
2021/12/04 17:56:12;;;;;;;13.25;4.55;;;;;;;2.64;100.00;99594.94;5134656;28;20498;-74
2021/12/04 18:02:07;;;;;;;15.85;4.50;;;;;;;2.58;100.00;99606.22;5134310;28;20034;-74
2021/12/04 18:07:35;;;;;;;14.68;4.65;;;;;;;2.56;100.00;99608.25;5134141;28;19922;-73
2021/12/04 18:13:28;;;;;;;17.10;4.60;;;;;;;2.58;100.00;99614.97;5134288;27;20053;-75
2021/12/04 18:19:17;;;;;;;17.55;4.15;;;;;;;2.67;100.00;99628.84;5134081;28;20042;-74
2021/12/04 18:25:07;;;;;;;17.42;5.13;;;;;;;2.78;100.00;99620.38;5133915;27;20045;-73
2021/12/04 18:30:54;;;;;;;13.88;3.72;;;;;;;2.86;100.00;99625.50;5133805;28;20046;-74
2021/12/04 18:33:22;;;;;;;11.65;3.50;;;;;;;2.85;100.00;99621.22;5133507;28;20106;-73
2021/12/04 18:39:13;;;;;;;12.02;3.58;;;;;;;2.94;100.00;99633.28;5133655;28;20095;-72
2021/12/04 18:45:01;;;;;;;12.20;3.75;;;;;;;2.91;100.00;99628.38;5133698;27;20070;-72
2021/12/04 18:50:51;;;;;;;15.82;5.30;;;;;;;2.84;100.00;99646.00;5133461;28;20127;-74
2021/12/04 18:56:38;;;;;;;18.20;5.32;;;;;;;2.69;100.00;99640.84;5133446;28;20096;-74
2021/12/04 19:02:26;;;;;;;22.63;5.70;;;;;;;2.61;100.00;99645.44;5133251;28;20084;-73
2021/12/04 19:08:14;;;;;;;22.15;6.13;;;;;;;2.52;100.00;99641.31;5133505;28;20038;-74
2021/12/04 19:14:02;;;;;;;18.02;6.20;;;;;;;2.53;100.00;99645.56;5133146;27;20038;-74
2021/12/04 19:19:49;;;;;;;21.33;7.43;;;;;;;2.58;100.00;99659.81;5133969;28;20045;-74
2021/12/04 19:25:37;;;;;;;20.20;7.53;;;;;;;2.53;100.00;99658.75;5133807;28;20046;-73
2021/12/04 19:31:26;;;;;;;18.45;6.60;;;;;;;2.43;100.00;99659.09;5133619;28;20547;-74
2021/12/04 19:52:44;;;;;;;26.20;7.63;;;;;;;2.68;100.00;99651.59;5132732;28;20062;-73
2021/12/04 19:58:52;;;;;;;16.38;6.15;;;;;;;2.72;100.00;99658.91;5132458;28;20091;-73
2021/12/04 20:01:35;;;;;;;19.58;6.43;;;;;;;2.58;100.00;99651.09;5113473;28;20035;-73
2021/12/04 20:18:48;;;;;;;17.00;7.75;;;;;;;2.51;100.00;99651.03;5135929;28;20039;-73
2021/12/04 20:24:41;;;;;;;22.27;9.98;;;;;;;2.44;100.00;99655.44;5135375;28;20046;-73
2021/12/04 21:07:25;;;;;;;32.10;11.52;;;;;;;2.09;100.00;99657.19;5135497;27;20046;-73
2021/12/04 21:26:18;;;;;;;23.15;9.43;;;;;;;1.99;100.00;99654.81;5135389;28;20130;-74
2021/12/04 21:53:28;;;;;;;15.98;5.43;;;;;;;2.06;100.00;99674.19;5134528;28;20088;-74
2021/12/04 22:11:36;;;;;;;15.90;6.32;;;;;;;2.09;100.00;99663.25;5134436;28;20571;-77
2021/12/04 22:58:57;;;;;;;16.70;5.18;;;;;;;2.82;100.00;99682.31;5133510;28;20041;-75
2021/12/04 23:11:06;;;;;;;22.55;5.97;;;;;;;2.80;100.00;99687.78;5132887;28;20054;-75
2021/12/04 23:11:15;;;;;;;15.38;5.57;;;;;;;2.88;100.00;99684.19;5133517;28;20045;-76
